Latest Weather Observations for Bathurst Airport

IDN60801

Issued at 11:33 am EST Sunday 25 September 2016 (issued every 30 minutes, with the page automatically refreshed every 10 minutes)

About weather observations | Map of weather stations | Latest weather observations for NSW | Other Formats
Station Details ID: 063291 Name: BATHURST AIRPORT AWS Lat: -33.41 Lon: 149.65 Height: 744.5 m
Data from the previous 72 hours. | See also: Recent months at Bathurst Airport
Date/Time
EST
Temp
°C
App
Temp
°C
Dew
Point
°C
Rel
Hum
%
Delta-T
°C
Wind Press
QNH
hPa
Press
MSL
hPa
Rain since
9am
mm
Dir  Spd
km/h
Gust
km/h
Spd
kts
Gust
kts
25/11:30am 12.3 8.2 8.8 79 1.8 W 20 28 11 15 1008.7 1008.2 0.0
25/11:00am 12.4 8.4 8.9 79 1.8 WSW 20 26 11 14 1008.6 1008.1 0.0
25/10:37am 11.4 7.6 9.7 89 0.9 WSW 20 26 11 14 1008.6 1008.1 0.0
25/10:30am 11.3 7.7 9.7 90 0.8 W 19 26 10 14 1008.6 1008.1 0.0
25/10:00am 11.5 10.0 10.4 93 0.6 WNW 9 17 5 9 1008.7 1008.2 0.0
25/09:30am 10.6 8.6 10.0 96 0.3 W 11 15 6 8 1009.2 1008.6 0.0
25/09:02am 9.9 8.6 9.9 100 0.0 WNW 7 13 4 7 1009.2 1008.6 0.0
25/09:00am 9.9 8.6 9.9 100 0.0 WNW 7 13 4 7 1009.2 1008.6 4.4
25/08:30am 9.3 7.1 9.3 100 0.0 NNW 11 13 6 7 1009.3 1008.7 4.2
25/08:00am 9.4 8.0 9.4 100 0.0 N 7 9 4 5 1009.1 1008.5 4.2
25/07:59am 9.4 7.9 9.3 99 0.1 N 7 9 4 5 1009.1 1008.5 4.2
25/07:52am 9.3 7.8 9.2 99 0.1 N 7 11 4 6 1009.2 1008.6 4.2
25/07:30am 8.9 7.3 8.9 100 0.0 NE 7 9 4 5 1009.1 1008.5 4.2
25/07:00am 8.4 6.9 8.4 100 0.0 ENE 6 7 3 4 1008.9 1008.3 4.2
25/06:30am 8.2 6.6 8.2 100 0.0 NNE 6 7 3 4 1008.7 1008.2 4.0
25/06:05am 8.1 6.3 8.1 100 0.0 NNE 7 9 4 5 1008.6 1008.1 3.6
25/06:00am 8.1 6.3 8.1 100 0.0 NNE 7 9 4 5 1008.6 1008.1 3.4
25/05:30am 8.4 7.7 8.4 100 0.0 ENE 2 7 1 4 1008.5 1008.0 2.8
25/05:00am 8.3 7.9 8.2 99 0.1 CALM 0 6 0 3 1008.2 1007.6 2.6
25/04:30am 8.4 7.3 8.3 99 0.1 ENE 4 6 2 3 1008.1 1007.5 2.4
25/04:00am 8.4 8.0 8.3 99 0.1 CALM 0 0 0 0 1008.2 1007.6 2.0
25/03:30am 8.4 6.7 8.3 99 0.1 ENE 7 9 4 5 1008.3 1007.7 1.6
25/03:00am 8.6 6.9 8.5 99 0.1 NE 7 7 4 4 1008.5 1008.0 1.2
25/02:30am 8.9 7.9 8.8 99 0.1 SSW 4 7 2 4 1008.9 1008.3 1.0
25/02:00am 9.1 7.6 8.6 97 0.3 SW 6 7 3 4 1009.4 1008.8 0.6
25/01:30am 9.1 7.5 8.6 97 0.3 SW 7 9 4 5 1009.5 1008.9 0.6
25/01:00am 9.2 6.3 8.1 93 0.6 WSW 13 15 7 8 1009.7 1009.2 0.6
25/12:30am 10.2 6.3 7.1 81 1.5 WNW 17 22 9 12 1010.1 1009.6 0.0
25/12:00am 10.5 9.1 9.6 94 0.5 NNE 7 9 4 5 1010.1 1009.6 0.0
 
Date/Time
EST
Temp
°C
App
Temp
°C
Dew
Point
°C
Rel
Hum
%
Delta-T
°C
Wind Press
QNH
hPa
Press
MSL
hPa
Rain since
9am
mm
Dir  Spd
km/h
Gust
km/h
Spd
kts
Gust
kts
24/11:30pm 10.5 10.6 10.0 97 0.3 CALM 0 0 0 0 1010.3 1009.7 0.0
24/11:00pm 11.1 10.8 8.7 85 1.2 CALM 0 0 0 0 1010.1 1009.6 0.0
24/10:30pm 10.9 10.5 8.3 84 1.3 CALM 0 0 0 0 1010.3 1009.7 0.0
24/10:00pm 11.0 10.6 8.1 82 1.5 CALM 0 0 0 0 1010.4 1009.8 0.0
24/09:30pm 10.8 9.2 8.2 84 1.3 NNE 6 7 3 4 1010.6 1010.0 0.0
24/09:00pm 10.6 8.9 8.2 85 1.2 N 7 9 4 5 1010.6 1010.0 0.0
24/08:30pm 10.5 7.9 7.9 84 1.3 N 11 13 6 7 1010.5 1009.9 0.0
24/08:00pm 11.1 9.0 8.3 83 1.4 N 9 11 5 6 1010.6 1010.0 0.0
24/07:30pm 11.4 9.3 8.3 81 1.6 NW 9 11 5 6 1010.8 1010.2 0.0
24/07:00pm 11.8 9.0 8.5 80 1.7 NW 13 15 7 8 1010.8 1010.2 0.0
24/06:30pm 11.6 8.6 7.5 76 2.1 WNW 13 15 7 8 1010.1 1009.6 0.0
24/06:00pm 12.3 9.2 7.4 72 2.5 NW 13 15 7 8 1010.1 1009.6 0.0
24/05:30pm 14.3 10.6 7.8 65 3.4 NW 17 22 9 12 1010.0 1009.5 0.0
24/05:00pm 16.4 12.2 8.4 59 4.2 NW 20 32 11 17 1009.8 1009.3 0.0
24/04:30pm 16.0 11.7 8.0 59 4.2 NW 20 28 11 15 1009.6 1009.0 0.0
24/04:00pm 18.0 14.5 8.8 55 5.0 NW 17 20 9 11 1009.4 1008.8 0.0
24/03:30pm 18.2 14.1 8.7 54 5.1 NW 20 28 11 15 1009.4 1008.8 0.0
24/03:00pm 18.0 13.8 9.6 58 4.6 NW 22 32 12 17 1009.5 1008.9 0.0
24/02:30pm 17.5 12.9 8.1 54 5.0 NW 22 32 12 17 1009.6 1009.0 0.0
24/02:00pm 18.5 14.6 9.3 55 5.0 NNW 20 32 11 17 1009.6 1009.0 0.0
24/01:30pm 18.0 15.1 11.1 64 3.9 NNW 17 26 9 14 1010.0 1009.5 0.0
24/01:00pm 17.7 13.8 8.8 56 4.8 NNW 19 24 10 13 1010.6 1010.0 0.0
24/12:30pm 17.3 14.0 9.5 60 4.2 NNW 17 24 9 13 1011.0 1010.5 0.0
24/12:00pm 17.0 14.4 9.4 61 4.1 NNW 13 24 7 13 1011.4 1010.9 0.0
24/11:30am 15.4 13.6 9.3 67 3.3 NW 9 15 5 8 1012.0 1011.5 0.0
24/11:00am 15.8 14.1 11.2 74 2.6 WNW 11 15 6 8 1012.5 1012.0 0.0
24/10:30am 13.8 11.9 10.4 80 1.8 NNW 11 17 6 9 1013.2 1012.7 0.0
24/10:00am 13.9 12.0 10.5 80 1.8 NNW 11 17 6 9 1013.4 1012.9 0.0
24/09:30am 12.5 11.3 10.4 87 1.1 W 7 13 4 7 1013.7 1013.2 0.0
24/09:00am 11.6 10.9 10.0 90 0.8 W 4 9 2 5 1013.9 1013.4 0.0
24/08:30am 10.1 10.0 9.5 96 0.3 CALM 0 0 0 0 1014.0 1013.5 0.0
24/08:00am 8.5 7.0 8.4 99 0.1 WSW 6 7 3 4 1014.1 1013.6 0.0
24/07:30am 7.7 6.8 7.6 99 0.0 SSE 2 7 1 4 1014.1 1013.6 0.0
24/07:00am 6.3 5.5 6.3 100 0.0 CALM 0 0 0 0 1014.0 1013.5 0.0
24/06:30am 5.5 4.5 5.5 100 0.0 CALM 0 0 0 0 1013.7 1013.2 0.0
24/06:00am 4.5 3.3 4.5 100 0.0 CALM 0 0 0 0 1013.3 1012.8 0.0
24/05:30am 5.1 2.7 5.1 100 0.0 SE 7 9 4 5 1013.2 1012.7 0.0
24/05:00am 5.2 4.1 5.2 100 0.0 CALM 0 0 0 0 1013.0 1012.5 0.0
24/04:30am 4.9 2.4 4.9 100 0.0 SW 7 9 4 5 1012.8 1012.3 0.0
24/04:00am 5.1 2.8 5.0 99 0.0 SW 6 9 3 5 1012.6 1012.1 0.0
24/03:30am 6.1 4.8 6.0 99 0.0 SSE 2 7 1 4 1012.4 1011.9 0.0
24/03:00am 7.2 5.4 7.2 100 0.0 S 6 9 3 5 1012.7 1012.2 0.0
24/02:30am 6.6 5.8 6.6 100 0.0 CALM 0 0 0 0 1013.2 1012.7 0.0
24/02:00am 6.5 5.7 6.5 100 0.0 CALM 0 0 0 0 1013.3 1012.8 0.0
24/01:30am 6.6 5.8 6.5 99 0.0 CALM 0 0 0 0 1013.3 1012.8 0.0
24/01:00am 6.8 6.0 6.7 99 0.0 CALM 0 0 0 0 1013.0 1012.5 0.0
24/12:30am 7.7 7.1 7.6 99 0.0 CALM 0 0 0 0 1013.2 1012.7 0.0
24/12:00am 8.1 7.6 8.0 99 0.0 CALM 0 0 0 0 1013.5 1013.0 0.0
 
Date/Time
EST
Temp
°C
App
Temp
°C
Dew
Point
°C
Rel
Hum
%
Delta-T
°C
Wind Press
QNH
hPa
Press
MSL
hPa
Rain since
9am
mm
Dir  Spd
km/h
Gust
km/h
Spd
kts
Gust
kts
23/11:30pm 8.0 7.0 7.2 95 0.4 SSW 2 7 1 4 1013.6 1013.1 0.0
23/11:00pm 8.7 6.9 7.8 94 0.4 SSW 7 9 4 5 1013.7 1013.2 0.0
23/10:30pm 8.9 8.4 7.8 93 0.5 CALM 0 6 0 3 1013.7 1013.2 0.0
23/10:00pm 9.6 7.4 8.0 90 0.8 S 9 11 5 6 1013.8 1013.3 0.0
23/09:30pm 9.9 9.0 7.8 87 1.1 S 2 7 1 4 1013.8 1013.3 0.0
23/09:00pm 10.1 8.3 7.9 86 1.1 S 7 9 4 5 1014.0 1013.5 0.0
23/08:30pm 10.2 8.4 7.8 85 1.2 SW 7 9 4 5 1013.9 1013.4 0.0
23/08:00pm 10.9 9.3 8.0 82 1.5 SSW 6 7 3 4 1013.9 1013.4 0.0
23/07:30pm 10.9 8.6 7.6 80 1.7 S 9 13 5 7 1013.6 1013.1 0.0
23/07:00pm 11.8 9.9 7.5 75 2.2 S 7 11 4 6 1013.4 1012.9 0.0
23/06:30pm 12.3 10.7 7.8 74 2.3 SSW 6 7 3 4 1013.2 1012.7 0.0
23/06:00pm 12.6 10.1 8.1 74 2.3 SSW 11 15 6 8 1012.9 1012.4 0.0
23/05:30pm 15.0 12.1 8.3 64 3.5 SW 13 17 7 9 1012.6 1012.1 0.0
23/05:00pm 16.0 12.6 7.7 58 4.3 SSW 15 19 8 10 1012.3 1011.8 0.0
23/04:30pm 16.6 13.6 7.8 56 4.6 SW 13 19 7 10 1012.2 1011.7 0.0
23/04:00pm 17.0 14.2 8.7 58 4.4 SW 13 19 7 10 1012.1 1011.6 0.0
23/03:30pm 16.1 12.6 7.1 55 4.6 SSW 15 22 8 12 1012.0 1011.5 0.0
23/03:00pm 17.1 14.0 8.8 58 4.5 SSW 15 24 8 13 1012.1 1011.6 0.0
23/02:30pm 16.9 13.2 9.3 61 4.1 SW 19 22 10 12 1012.4 1011.9 0.0
23/02:00pm 16.9 13.6 9.6 62 4.0 SSW 17 24 9 13 1012.6 1012.1 0.0
23/01:30pm 16.5 13.2 9.4 63 3.8 SW 17 20 9 11 1013.0 1012.5 0.0
23/01:00pm 15.6 12.4 8.4 62 3.8 SW 15 20 8 11 1013.2 1012.7 0.0
23/12:30pm 15.5 11.4 7.8 60 4.0 SSW 19 24 10 13 1013.3 1012.8 0.0
23/12:00pm 14.8 10.5 7.8 63 3.6 SSW 20 28 11 15 1013.5 1013.0 0.0
23/11:30am 14.3 10.7 6.6 60 3.9 S 15 24 8 13 1013.5 1013.0 0.0
23/11:00am 14.7 10.6 8.6 67 3.2 S 20 32 11 17 1013.8 1013.3 0.0
23/10:30am 14.2 10.1 7.7 65 3.3 S 19 26 10 14 1014.3 1013.9 0.0
23/10:00am 13.8 9.7 7.8 67 3.1 S 19 26 10 14 1014.4 1014.0 0.0
23/09:30am 12.4 8.1 6.9 69 2.8 SSW 19 26 10 14 1014.6 1014.1 0.0
23/09:00am 12.0 7.2 7.3 73 2.4 SSW 22 26 12 14 1014.6 1014.1 0.2
23/08:30am 11.5 7.1 7.2 75 2.2 S 20 28 11 15 1014.6 1014.1 0.2
23/08:00am 10.5 6.3 7.4 81 1.5 S 19 24 10 13 1014.4 1014.0 0.2
23/07:30am 9.7 7.4 7.5 86 1.1 S 9 17 5 9 1014.4 1014.0 0.2
23/07:00am 8.5 7.5 7.4 93 0.5 S 2 7 1 4 1014.3 1013.9 0.2
23/06:30am 7.4 5.1 7.3 99 0.0 S 9 11 5 6 1014.0 1013.5 0.2
23/06:00am 6.7 4.2 6.6 99 0.0 SW 9 11 5 6 1013.8 1013.3 0.2
23/05:30am 6.5 3.6 6.4 99 0.0 SW 11 11 6 6 1013.5 1013.0 0.2
23/05:00am 7.8 5.1 7.2 96 0.3 SW 11 15 6 8 1013.2 1012.7 0.2
23/04:30am 8.4 5.9 8.0 97 0.2 SW 11 15 6 8 1013.0 1012.5 0.2
23/04:00am 8.4 5.5 8.1 98 0.1 SW 13 17 7 9 1012.7 1012.2 0.2
23/03:45am 8.3 5.8 8.2 99 0.0 WSW 11 17 6 9 1012.7 1012.2 0.2
23/03:30am 8.2 6.1 8.1 99 0.0 WSW 9 17 5 9 1012.6 1012.1 0.2
23/03:00am 7.6 6.3 7.5 99 0.0 SW 4 7 2 4 1012.5 1012.0 0.2
23/02:44am 7.5 5.6 7.4 99 0.0 SW 7 11 4 6 1012.4 1011.9 0.2
23/02:30am 7.5 4.8 7.4 99 0.0 SW 11 13 6 7 1012.5 1012.0 0.2
23/02:27am 7.6 4.9 7.5 99 0.0 SW 11 13 6 7 1012.5 1012.0 0.2
23/02:00am 8.6 4.4 8.3 98 0.2 SW 20 26 11 14 1012.8 1012.3 0.2
23/01:48am 8.9 4.8 8.6 98 0.2 SW 20 26 11 14 1013.0 1012.5 0.2
23/01:30am 9.0 5.0 8.9 99 0.1 SW 20 26 11 14 1013.3 1012.8 0.2
23/01:28am 9.0 4.9 8.7 98 0.2 SW 20 26 11 14 1013.3 1012.8 0.2
23/01:00am 9.1 5.3 9.0 99 0.1 WSW 19 24 10 13 1013.5 1013.0 0.2
23/12:30am 9.0 5.5 8.9 99 0.1 WSW 17 24 9 13 1013.7 1013.2 0.2
23/12:00am 9.0 5.5 8.9 99 0.1 WSW 17 20 9 11 1013.7 1013.2 0.2
 
Date/Time
EST
Temp
°C
App
Temp
°C
Dew
Point
°C
Rel
Hum
%
Delta-T
°C
Wind Press
QNH
hPa
Press
MSL
hPa
Rain since
9am
mm
Dir  Spd
km/h
Gust
km/h
Spd
kts
Gust
kts
22/11:30pm 9.0 5.2 8.9 99 0.1 WSW 19 22 10 12 1013.8 1013.3 0.2
22/11:00pm 9.1 6.0 9.0 99 0.1 SW 15 20 8 11 1013.9 1013.4 0.2
22/10:30pm 9.4 5.5 8.8 96 0.3 SW 19 28 10 15 1013.9 1013.4 0.2
22/10:00pm 9.5 6.0 8.7 95 0.4 WSW 17 20 9 11 1013.9 1013.4 0.2
22/09:30pm 9.5 6.3 8.4 93 0.6 WSW 15 20 8 11 1013.9 1013.4 0.2
22/09:00pm 9.5 5.9 8.4 93 0.6 WSW 17 22 9 12 1013.9 1013.4 0.2
22/08:30pm 9.5 6.0 8.7 95 0.4 WSW 17 22 9 12 1013.6 1013.1 0.2
22/08:00pm 9.5 5.6 8.6 94 0.5 WSW 19 26 10 14 1013.5 1013.0 0.2
22/07:30pm 9.4 5.8 8.3 93 0.6 WSW 17 20 9 11 1013.3 1012.8 0.2
22/07:00pm 9.3 5.6 7.9 91 0.7 WSW 17 20 9 11 1013.3 1012.8 0.2
22/06:30pm 9.2 5.5 7.8 91 0.7 WSW 17 22 9 12 1013.0 1012.5 0.2
22/06:00pm 9.4 5.2 7.3 87 1.0 WSW 19 28 10 15 1012.7 1012.2 0.2
22/05:30pm 9.4 4.2 7.3 87 1.0 WSW 24 32 13 17 1012.5 1012.0 0.2
22/05:00pm 9.4 4.6 7.2 86 1.1 WSW 22 35 12 19 1012.3 1011.8 0.2
22/04:53pm 9.5 4.7 7.3 86 1.1 WSW 22 30 12 16 1012.2 1011.7 0.2
22/04:30pm 9.6 3.9 6.5 81 1.5 WSW 26 33 14 18 1011.9 1011.3 0.2
22/04:00pm 9.6 3.6 7.0 84 1.3 W 28 37 15 20 1011.3 1010.8 0.2
22/03:30pm 10.1 4.5 7.3 83 1.4 WSW 26 35 14 19 1011.1 1010.6 0.2
22/03:23pm 10.0 4.1 7.4 84 1.3 WSW 28 35 15 19 1011.1 1010.6 0.2
22/03:00pm 10.2 3.4 6.9 80 1.6 WSW 32 39 17 21 1011.0 1010.5 0.2
22/02:52pm 10.5 4.2 7.2 80 1.6 W 30 37 16 20 1010.9 1010.4 0.2
22/02:30pm 10.9 4.3 7.8 81 1.6 WSW 32 43 17 23 1010.8 1010.2 0.2
22/02:00pm 11.1 4.5 7.8 80 1.7 WSW 32 43 17 23 1010.8 1010.2 0.2
22/01:30pm 10.5 3.4 6.6 77 1.9 WSW 33 44 18 24 1010.7 1010.1 0.2
22/01:00pm 11.3 6.0 8.5 83 1.4 WSW 26 35 14 19 1010.7 1010.1 0.2
22/12:30pm 11.2 4.1 7.9 80 1.7 WSW 35 43 19 23 1010.7 1010.1 0.2
22/12:00pm 9.7 3.6 6.6 81 1.5 SW 28 35 15 19 1011.1 1010.6 0.2
22/11:42am 10.1 4.2 7.3 83 1.4 WSW 28 33 15 18 1011.2 1010.7 0.2

Other Formats:

Comma delimited format used in spreadsheet applications
http://www.bom.gov.au/fwo/IDN60801/IDN60801.94729.axf

JavaScript Object Notation format (JSON) in row-major order
http://www.bom.gov.au/fwo/IDN60801/IDN60801.94729.json